createdAt,value
2023-10-06T00:01:34.538Z,1023.11
2023-10-06T00:03:19.416Z,1023.02
2023-10-06T00:05:04.416Z,1023
2023-10-06T00:06:49.497Z,1023.08
2023-10-06T00:08:34.512Z,1023.03
2023-10-06T00:10:19.416Z,1023.1
2023-10-06T00:12:04.421Z,1023.11
2023-10-06T00:13:49.427Z,1023.11
2023-10-06T00:15:34.412Z,1023.07
2023-10-06T00:17:19.518Z,1023.03
2023-10-06T00:19:04.444Z,1022.88
2023-10-06T00:20:49.425Z,1023.12
2023-10-06T00:22:34.582Z,1023.1
2023-10-06T00:24:19.408Z,1023.04
2023-10-06T00:26:04.459Z,1023.07
2023-10-06T00:27:49.448Z,1022.95
2023-10-06T00:29:34.438Z,1022.98
2023-10-06T00:31:19.453Z,1023.1
2023-10-06T00:33:04.504Z,1023.02
2023-10-06T00:34:49.435Z,1023.08
2023-10-06T00:36:34.440Z,1023.04
2023-10-06T00:38:19.587Z,1023.03
2023-10-06T00:40:04.490Z,1022.98
2023-10-06T00:41:49.461Z,1023.03
2023-10-06T00:43:34.498Z,1022.99
2023-10-06T00:45:19.470Z,1022.98
2023-10-06T00:47:04.485Z,1022.99
2023-10-06T00:48:49.476Z,1023.01
2023-10-06T00:50:34.458Z,1023
2023-10-06T00:52:19.450Z,1022.89
2023-10-06T00:54:04.571Z,1022.89
2023-10-06T00:55:49.565Z,1022.86
2023-10-06T00:57:34.458Z,1022.85
2023-10-06T00:59:19.475Z,1022.77
2023-10-06T01:01:04.527Z,1022.72
2023-10-06T01:02:49.532Z,1022.8
2023-10-06T01:04:34.490Z,1022.76
2023-10-06T01:06:19.507Z,1022.83
2023-10-06T01:08:04.520Z,1022.83
2023-10-06T01:09:49.595Z,1022.81
2023-10-06T01:11:34.479Z,1022.64
2023-10-06T01:13:19.472Z,1022.71
2023-10-06T01:15:04.481Z,1022.7
2023-10-06T01:16:49.503Z,1022.57
2023-10-06T01:18:34.493Z,1022.62
2023-10-06T01:20:19.486Z,1022.61
2023-10-06T01:22:04.499Z,1022.51
2023-10-06T01:23:49.488Z,1022.6
2023-10-06T01:25:34.644Z,1022.55
2023-10-06T01:27:19.532Z,1022.66
2023-10-06T01:29:04.522Z,1022.58
2023-10-06T01:30:49.515Z,1022.63
2023-10-06T01:32:34.550Z,1022.68
2023-10-06T01:34:19.526Z,1022.68
2023-10-06T01:36:04.507Z,1022.59
2023-10-06T01:37:49.712Z,1022.61
2023-10-06T01:39:34.503Z,1022.5
2023-10-06T01:41:19.641Z,1022.58
2023-10-06T01:43:04.518Z,1022.55
2023-10-06T01:44:49.515Z,1022.58
2023-10-06T01:46:34.561Z,1022.57
2023-10-06T01:48:19.544Z,1022.55
2023-10-06T01:50:04.621Z,1022.65
2023-10-06T01:51:55.532Z,1022.54
2023-10-06T01:53:34.794Z,1022.58
2023-10-06T01:55:19.545Z,1022.64
2023-10-06T01:57:04.682Z,1022.49
2023-10-06T01:58:49.542Z,1022.51
2023-10-06T02:00:34.525Z,1022.41
2023-10-06T02:02:19.638Z,1022.42
2023-10-06T02:04:04.544Z,1022.3
2023-10-06T02:05:49.541Z,1022.28
2023-10-06T02:07:34.574Z,1022.3
2023-10-06T02:09:19.572Z,1022.39
2023-10-06T02:11:04.627Z,1022.38
2023-10-06T02:12:49.681Z,1022.44
2023-10-06T02:14:34.549Z,1022.38
2023-10-06T02:16:19.541Z,1022.47
2023-10-06T02:18:04.646Z,1022.44
2023-10-06T02:19:49.549Z,1022.4
2023-10-06T02:21:34.575Z,1022.44
2023-10-06T02:23:19.594Z,1022.42
2023-10-06T02:25:04.556Z,1022.53
2023-10-06T02:26:49.577Z,1022.47
2023-10-06T02:28:34.730Z,1022.41
2023-10-06T02:30:19.563Z,1022.42
2023-10-06T02:32:04.681Z,1022.31
2023-10-06T02:33:49.597Z,1022.41
2023-10-06T02:35:34.631Z,1022.41
2023-10-06T02:37:19.586Z,1022.35
2023-10-06T02:39:04.581Z,1022.36
2023-10-06T02:40:49.700Z,1022.3
2023-10-06T02:42:34.592Z,1022.34
2023-10-06T02:44:19.728Z,1022.36
2023-10-06T02:46:04.587Z,1022.28
2023-10-06T02:47:49.694Z,1022.31
2023-10-06T02:49:34.598Z,1022.37
2023-10-06T02:51:19.571Z,1022.43
2023-10-06T02:53:04.623Z,1022.38
2023-10-06T02:54:49.921Z,1022.41
2023-10-06T02:56:34.619Z,1022.36
2023-10-06T02:58:19.585Z,1022.48
2023-10-06T03:00:04.746Z,1022.37
2023-10-06T03:01:49.594Z,1022.39
2023-10-06T03:03:34.722Z,1022.34
2023-10-06T03:05:19.611Z,1022.32
2023-10-06T03:07:04.600Z,1022.24
2023-10-06T03:08:49.597Z,1022.28
2023-10-06T03:10:34.627Z,1022.23
2023-10-06T03:12:19.611Z,1022.22
2023-10-06T03:14:04.674Z,1022.18
2023-10-06T03:15:49.728Z,1022.17
2023-10-06T03:17:34.724Z,1022.21
2023-10-06T03:19:19.619Z,1022.27
2023-10-06T03:21:04.627Z,1022.2
2023-10-06T03:22:49.703Z,1022.15
2023-10-06T03:24:34.643Z,1022.3
2023-10-06T03:26:19.630Z,1022.27
2023-10-06T03:28:04.637Z,1022.31
2023-10-06T03:29:49.641Z,1022.32
2023-10-06T03:31:34.774Z,1022.39
2023-10-06T03:33:19.672Z,1022.4
2023-10-06T03:35:04.651Z,1022.31
2023-10-06T03:36:49.647Z,1022.35
2023-10-06T03:38:34.694Z,1022.34
2023-10-06T03:40:19.652Z,1022.4
2023-10-06T03:42:04.651Z,1022.39
2023-10-06T03:43:49.682Z,1022.4
2023-10-06T03:45:34.652Z,1022.43
2023-10-06T03:47:19.808Z,1022.48
2023-10-06T03:49:04.681Z,1022.46
2023-10-06T03:50:49.970Z,1022.38
2023-10-06T03:52:34.663Z,1022.34
2023-10-06T03:54:19.695Z,1022.46
2023-10-06T03:56:04.691Z,1022.44
2023-10-06T03:57:49.682Z,1022.41
2023-10-06T03:59:34.744Z,1022.49
2023-10-06T04:01:19.686Z,1022.34
2023-10-06T04:03:04.905Z,1022.32
2023-10-06T04:04:49.727Z,1022.29
2023-10-06T04:06:34.726Z,1022.3
2023-10-06T04:08:19.681Z,1022.21
2023-10-06T04:10:04.700Z,1022.15
2023-10-06T04:11:49.755Z,1022.11
2023-10-06T04:13:34.743Z,1022.09
2023-10-06T04:15:19.738Z,1022.06
2023-10-06T04:17:04.778Z,1022.05
2023-10-06T04:18:49.889Z,1022.01
2023-10-06T04:20:34.731Z,1022.06
2023-10-06T04:22:19.757Z,1022.04
2023-10-06T04:24:04.732Z,1022.04
2023-10-06T04:25:49.738Z,1021.95
2023-10-06T04:27:34.748Z,1021.96
2023-10-06T04:29:19.742Z,1021.87
2023-10-06T04:31:04.734Z,1021.94
2023-10-06T04:32:49.796Z,1021.86
2023-10-06T04:34:34.871Z,1021.79
2023-10-06T04:36:19.764Z,1021.84
2023-10-06T04:38:04.798Z,1021.91
2023-10-06T04:39:49.775Z,1021.9
2023-10-06T04:41:34.759Z,1021.94
2023-10-06T04:43:19.778Z,1021.9
2023-10-06T04:45:04.744Z,1021.91
2023-10-06T04:46:49.793Z,1021.89
2023-10-06T04:48:34.770Z,1021.88
2023-10-06T04:50:19.892Z,1021.93
2023-10-06T04:52:04.774Z,1021.92
2023-10-06T04:53:49.793Z,1021.88
2023-10-06T04:55:34.809Z,1021.88
2023-10-06T04:57:19.777Z,1021.85
2023-10-06T04:59:04.797Z,1021.83
2023-10-06T05:00:49.797Z,1021.83
2023-10-06T05:02:34.889Z,1021.83
2023-10-06T05:04:19.784Z,1021.91
2023-10-06T05:06:04.920Z,1021.76
2023-10-06T05:07:49.878Z,1021.76
2023-10-06T05:09:34.831Z,1021.67
2023-10-06T05:11:20.035Z,1021.79
2023-10-06T05:13:04.816Z,1021.82
2023-10-06T05:14:49.860Z,1021.79
2023-10-06T05:16:34.819Z,1021.75
2023-10-06T05:18:19.805Z,1021.74
2023-10-06T05:20:04.836Z,1021.76
2023-10-06T05:21:49.982Z,1021.8
2023-10-06T05:23:35.899Z,1021.78
2023-10-06T05:25:19.806Z,1021.77
2023-10-06T05:27:04.817Z,1021.78
2023-10-06T05:28:49.868Z,1021.69
2023-10-06T05:30:34.817Z,1021.66
2023-10-06T05:32:19.882Z,1021.75
2023-10-06T05:34:04.897Z,1021.68
2023-10-06T05:35:49.837Z,1021.59
2023-10-06T05:37:35.223Z,1021.67
2023-10-06T05:39:19.852Z,1021.64
2023-10-06T05:41:04.859Z,1021.69
2023-10-06T05:42:49.869Z,1021.84
2023-10-06T05:44:34.848Z,1021.86
2023-10-06T05:46:19.866Z,1021.9
2023-10-06T05:48:04.869Z,1021.87
2023-10-06T05:49:49.885Z,1021.76
2023-10-06T05:51:34.930Z,1021.91
2023-10-06T05:53:20.012Z,1021.87
2023-10-06T05:55:04.860Z,1021.9
2023-10-06T05:56:49.868Z,1021.84
2023-10-06T05:58:34.878Z,1021.91
2023-10-06T06:00:19.869Z,1021.8
2023-10-06T06:02:04.896Z,1021.89
2023-10-06T06:03:49.928Z,1021.9
2023-10-06T06:05:37.351Z,1021.96
2023-10-06T06:07:19.865Z,1021.92
2023-10-06T06:09:05.013Z,1021.9
2023-10-06T06:10:49.941Z,1021.89
2023-10-06T06:12:34.869Z,1021.89
2023-10-06T06:14:19.860Z,1021.91
2023-10-06T06:16:04.860Z,1021.95
2023-10-06T06:17:49.892Z,1022.01
2023-10-06T06:19:34.869Z,1021.93
2023-10-06T06:21:19.880Z,1021.93
2023-10-06T06:23:04.903Z,1021.89
2023-10-06T06:24:50.000Z,1021.84
2023-10-06T06:26:34.873Z,1021.84
2023-10-06T06:28:19.912Z,1021.88
2023-10-06T06:30:04.885Z,1021.93
2023-10-06T06:31:49.992Z,1021.92
2023-10-06T06:33:34.883Z,1021.99
2023-10-06T06:35:19.907Z,1021.98
2023-10-06T06:37:04.877Z,1021.95
2023-10-06T06:38:49.857Z,1021.96
2023-10-06T06:40:35.001Z,1022.04
2023-10-06T06:42:19.900Z,1021.96
2023-10-06T06:44:04.892Z,1021.9
2023-10-06T06:45:49.925Z,1021.88
2023-10-06T06:47:34.928Z,1021.97
2023-10-06T06:49:19.924Z,1022.03
2023-10-06T06:51:04.941Z,1022.08
2023-10-06T06:52:49.970Z,1022.09
2023-10-06T06:54:34.908Z,1022.09
2023-10-06T06:56:20.056Z,1022.08
2023-10-06T06:58:04.922Z,1022.22
2023-10-06T06:59:49.930Z,1022.15
2023-10-06T07:01:34.946Z,1022.2
2023-10-06T07:03:19.935Z,1022.04
2023-10-06T07:05:04.963Z,1022.23
2023-10-06T07:06:49.936Z,1022.17
2023-10-06T07:08:34.937Z,1022.2
2023-10-06T07:10:19.982Z,1022.12
2023-10-06T07:12:05.043Z,1022.12
2023-10-06T07:13:49.970Z,1021.97
2023-10-06T07:15:35.072Z,1022.05
2023-10-06T07:17:19.991Z,1022.08
2023-10-06T07:19:04.968Z,1021.91
2023-10-06T07:20:49.922Z,1021.95
2023-10-06T07:22:34.925Z,1021.96
2023-10-06T07:24:19.954Z,1021.97
2023-10-06T07:26:04.945Z,1021.93
2023-10-06T07:27:50.073Z,1021.92
2023-10-06T07:29:35.004Z,1021.9
2023-10-06T07:31:19.990Z,1021.91
2023-10-06T07:33:05.022Z,1021.96
2023-10-06T07:34:49.969Z,1021.94
2023-10-06T07:36:34.946Z,1021.85
2023-10-06T07:38:19.990Z,1021.87
2023-10-06T07:40:04.969Z,1021.79
2023-10-06T07:41:49.977Z,1021.73
2023-10-06T07:43:35.100Z,1021.79
2023-10-06T07:45:19.996Z,1021.84
2023-10-06T07:47:05.017Z,1021.85
2023-10-06T07:48:49.959Z,1021.99
2023-10-06T07:50:34.980Z,1021.99
2023-10-06T07:52:19.983Z,1021.92
2023-10-06T07:54:06.508Z,1021.93
2023-10-06T07:55:50.027Z,1021.91
2023-10-06T07:57:34.998Z,1021.91
2023-10-06T07:59:20.151Z,1021.91
2023-10-06T08:01:04.982Z,1021.97
2023-10-06T08:02:50.029Z,1021.99
2023-10-06T08:04:34.999Z,1022.08
2023-10-06T08:06:19.990Z,1022.07
2023-10-06T08:08:05.005Z,1022.05
2023-10-06T08:09:50.033Z,1022.1
2023-10-06T08:11:35.016Z,1022.14
2023-10-06T08:13:20.010Z,1022.12
2023-10-06T08:15:05.180Z,1022.22
2023-10-06T08:16:50.005Z,1022.12
2023-10-06T08:18:35.005Z,1022.14
2023-10-06T08:20:20.069Z,1022.16
2023-10-06T08:22:05.263Z,1022.17
2023-10-06T08:23:50.003Z,1022.27
2023-10-06T08:25:45.712Z,1022.24
2023-10-06T08:27:20.049Z,1022.24
2023-10-06T08:29:05.057Z,1022.26
2023-10-06T08:30:50.246Z,1022.26
2023-10-06T08:32:35.137Z,1022.35
2023-10-06T08:34:20.058Z,1022.29
2023-10-06T08:36:05.070Z,1022.34
2023-10-06T08:37:50.094Z,1022.24
2023-10-06T08:39:35.077Z,1022.24
2023-10-06T08:41:20.084Z,1022.36
2023-10-06T08:43:05.048Z,1022.3
2023-10-06T08:44:50.079Z,1022.23
2023-10-06T08:46:35.257Z,1022.28
2023-10-06T08:48:20.163Z,1022.25
2023-10-06T08:50:05.093Z,1022.36
2023-10-06T08:51:50.048Z,1022.32
2023-10-06T08:53:35.075Z,1022.23
2023-10-06T08:55:20.043Z,1022.23
2023-10-06T08:57:05.072Z,1022.14
2023-10-06T08:58:50.121Z,1022.18
2023-10-06T09:00:35.746Z,1022.17
2023-10-06T09:02:20.222Z,1022.2
2023-10-06T09:04:05.205Z,1022.15
2023-10-06T09:05:50.068Z,1022.16
2023-10-06T09:07:35.376Z,1022.15
2023-10-06T09:09:20.094Z,1022.09
2023-10-06T09:11:05.092Z,1022.2
2023-10-06T09:12:50.066Z,1022.17
2023-10-06T09:14:35.450Z,1022.17
2023-10-06T09:16:20.113Z,1022.21
2023-10-06T09:18:05.256Z,1022.18
2023-10-06T09:19:50.164Z,1022.19
2023-10-06T09:21:35.074Z,1022.19
2023-10-06T09:23:20.074Z,1022.21
2023-10-06T09:25:05.096Z,1022.14
2023-10-06T09:26:50.460Z,1022.1
2023-10-06T09:28:35.147Z,1022.15
2023-10-06T09:30:20.104Z,1022.19
2023-10-06T09:32:05.692Z,1022.12
2023-10-06T09:33:50.238Z,1022.26
2023-10-06T09:35:35.124Z,1022.14
2023-10-06T09:37:20.168Z,1022.07
2023-10-06T09:39:05.120Z,1022.1
2023-10-06T09:40:50.124Z,1021.99
2023-10-06T09:42:35.132Z,1021.99
2023-10-06T09:44:20.502Z,1021.99
2023-10-06T09:46:05.129Z,1021.96
2023-10-06T09:47:50.254Z,1021.87
2023-10-06T09:49:35.227Z,1021.88
2023-10-06T09:51:20.131Z,1021.86
2023-10-06T09:53:05.194Z,1021.72
2023-10-06T09:54:50.137Z,1021.83
2023-10-06T09:56:35.114Z,1021.79
2023-10-06T09:58:20.155Z,1021.88
2023-10-06T10:00:05.182Z,1021.88
2023-10-06T10:01:50.231Z,1022.03
2023-10-06T10:03:35.308Z,1021.83
2023-10-06T10:05:20.511Z,1021.78
2023-10-06T10:07:05.157Z,1021.77
2023-10-06T10:08:50.804Z,1021.62
2023-10-06T10:10:35.149Z,1021.53
2023-10-06T10:12:20.175Z,1021.67
2023-10-06T10:14:05.198Z,1021.68
2023-10-06T10:15:50.186Z,1021.74
2023-10-06T10:17:35.188Z,1021.79
2023-10-06T10:19:20.188Z,1021.82
2023-10-06T10:21:05.281Z,1021.66
2023-10-06T10:22:50.195Z,1021.86
2023-10-06T10:25:05.782Z,1021.85
2023-10-06T10:26:20.259Z,1021.67
2023-10-06T10:28:05.221Z,1021.86
2023-10-06T10:29:50.213Z,1021.78
2023-10-06T10:31:42.201Z,1021.7
2023-10-06T10:33:20.201Z,1021.61
2023-10-06T10:35:05.330Z,1021.74
2023-10-06T10:36:50.297Z,1021.65
2023-10-06T10:38:35.160Z,1021.61
2023-10-06T10:40:20.202Z,1021.76
2023-10-06T10:42:05.190Z,1021.63
2023-10-06T10:43:50.536Z,1021.65
2023-10-06T10:45:35.223Z,1021.67
2023-10-06T10:47:20.290Z,1021.63
2023-10-06T10:49:05.199Z,1021.54
2023-10-06T10:50:50.187Z,1021.48
2023-10-06T10:52:35.247Z,1021.6
2023-10-06T10:54:20.226Z,1021.6
2023-10-06T10:56:05.758Z,1021.57
2023-10-06T10:57:50.231Z,1021.61
2023-10-06T10:59:35.230Z,1021.5
2023-10-06T11:01:20.232Z,1021.6
2023-10-06T11:03:05.246Z,1021.47
2023-10-06T11:04:50.257Z,1021.4
2023-10-06T11:06:35.239Z,1021.52
2023-10-06T11:08:20.388Z,1021.35
2023-10-06T11:10:05.261Z,1021.37
2023-10-06T11:11:50.246Z,1021.39
2023-10-06T11:13:48.565Z,1021.36
2023-10-06T11:15:20.250Z,1021.26
2023-10-06T11:17:05.270Z,1021.43
2023-10-06T11:18:50.266Z,1021.32
2023-10-06T11:20:35.459Z,1021.25
2023-10-06T11:22:20.268Z,1021.29
2023-10-06T11:24:05.358Z,1021.18
2023-10-06T11:25:50.248Z,1021.28
2023-10-06T11:27:35.310Z,1021.17
2023-10-06T11:29:20.306Z,1021.1
2023-10-06T11:31:05.315Z,1021.04
2023-10-06T11:32:50.341Z,1021.16
2023-10-06T11:34:35.278Z,1021.07
2023-10-06T11:36:20.598Z,1021.16
2023-10-06T11:38:05.308Z,1021.05
2023-10-06T11:39:50.369Z,1021.09
2023-10-06T11:41:35.272Z,1021.15
2023-10-06T11:43:20.258Z,1021.03
2023-10-06T11:45:05.300Z,1021.1
2023-10-06T11:46:50.286Z,1021.07
2023-10-06T11:48:35.435Z,1021.13
2023-10-06T11:50:20.374Z,1021.08
2023-10-06T11:52:05.283Z,1021.04
2023-10-06T11:53:50.303Z,1021.07
2023-10-06T11:55:35.548Z,1021.07
2023-10-06T11:57:20.318Z,1021.08
2023-10-06T11:59:05.359Z,1021.04
2023-10-06T12:00:50.337Z,1021.08
2023-10-06T12:02:35.295Z,1020.92
2023-10-06T12:04:20.312Z,1020.95
2023-10-06T12:06:05.326Z,1020.79
2023-10-06T12:07:50.306Z,1020.88
2023-10-06T12:09:35.304Z,1020.85
2023-10-06T12:11:20.478Z,1020.87
2023-10-06T12:13:05.322Z,1020.98
2023-10-06T12:14:50.344Z,1020.81
2023-10-06T12:16:35.340Z,1020.82
2023-10-06T12:18:20.340Z,1020.77
2023-10-06T12:20:05.406Z,1020.73
2023-10-06T12:21:50.318Z,1020.64
2023-10-06T12:23:35.350Z,1020.7
2023-10-06T12:25:20.356Z,1020.73
2023-10-06T12:27:05.349Z,1020.75
2023-10-06T12:28:50.342Z,1020.76
2023-10-06T12:30:35.338Z,1020.8
2023-10-06T12:32:20.355Z,1020.79
2023-10-06T12:34:05.502Z,1020.77
2023-10-06T12:35:50.322Z,1020.68
2023-10-06T12:37:35.346Z,1020.6
2023-10-06T12:39:20.359Z,1020.63
2023-10-06T12:41:05.348Z,1020.54
2023-10-06T12:42:50.492Z,1020.52
2023-10-06T12:44:35.389Z,1020.54
2023-10-06T12:46:20.384Z,1020.53
2023-10-06T12:48:05.398Z,1020.45
2023-10-06T12:49:50.370Z,1020.48
2023-10-06T12:51:35.385Z,1020.45
2023-10-06T12:53:20.451Z,1020.49
2023-10-06T12:55:05.418Z,1020.52
2023-10-06T12:56:50.417Z,1020.52
2023-10-06T12:58:35.504Z,1020.47
2023-10-06T13:00:20.381Z,1020.49
2023-10-06T13:02:05.426Z,1020.5
2023-10-06T13:03:50.479Z,1020.46
2023-10-06T13:05:35.382Z,1020.44
2023-10-06T13:07:20.388Z,1020.53
2023-10-06T13:09:05.378Z,1020.39
2023-10-06T13:10:50.367Z,1020.51
2023-10-06T13:12:35.382Z,1020.39
2023-10-06T13:14:20.626Z,1020.34
2023-10-06T13:16:05.491Z,1020.41
2023-10-06T13:17:50.433Z,1020.52
2023-10-06T13:19:35.425Z,1020.41
2023-10-06T13:21:20.442Z,1020.53
2023-10-06T13:23:05.447Z,1020.33
2023-10-06T13:24:50.485Z,1020.4
2023-10-06T13:26:42.934Z,1020.38
2023-10-06T13:28:20.424Z,1020.37
2023-10-06T13:30:05.560Z,1020.45
2023-10-06T13:31:50.433Z,1020.4
2023-10-06T13:33:35.545Z,1020.41
2023-10-06T13:35:20.564Z,1020.32
2023-10-06T13:37:05.421Z,1020.36
2023-10-06T13:38:50.460Z,1020.3
2023-10-06T13:40:35.539Z,1020.33
2023-10-06T13:42:20.493Z,1020.35
2023-10-06T13:44:05.442Z,1020.23
2023-10-06T13:45:50.582Z,1020.24
2023-10-06T13:47:35.528Z,1020.31
2023-10-06T13:49:20.482Z,1020.34
2023-10-06T13:51:05.457Z,1020.35
2023-10-06T13:52:50.575Z,1020.24
2023-10-06T13:54:35.481Z,1020.23
2023-10-06T13:56:20.545Z,1020.17
2023-10-06T13:58:05.475Z,1020.08
2023-10-06T13:59:50.461Z,1020.14
2023-10-06T14:01:35.699Z,1020.03
2023-10-06T14:03:20.653Z,1020.16
2023-10-06T14:05:05.516Z,1020.11
2023-10-06T14:06:50.493Z,1020.01
2023-10-06T14:08:35.488Z,1019.94
2023-10-06T14:10:20.495Z,1020
2023-10-06T14:12:05.469Z,1019.97
2023-10-06T14:13:50.497Z,1019.98
2023-10-06T14:15:35.496Z,1019.98
2023-10-06T14:17:22.071Z,1019.95
2023-10-06T14:19:05.482Z,1020.03
2023-10-06T14:20:50.501Z,1019.97
2023-10-06T14:22:35.554Z,1020.01
2023-10-06T14:24:20.524Z,1020.05
2023-10-06T14:26:05.530Z,1019.97
2023-10-06T14:27:50.508Z,1019.9
2023-10-06T14:29:35.516Z,1019.96
2023-10-06T14:31:20.515Z,1019.99
2023-10-06T14:33:05.553Z,1020.07
2023-10-06T14:34:50.498Z,1019.96
2023-10-06T14:36:35.524Z,1020.05
2023-10-06T14:38:20.525Z,1019.93
2023-10-06T14:40:05.824Z,1019.93
2023-10-06T14:41:50.545Z,1020.03
2023-10-06T14:43:35.510Z,1019.99
2023-10-06T14:45:20.520Z,1019.95
2023-10-06T14:47:05.627Z,1020.07
2023-10-06T14:48:50.657Z,1019.96
2023-10-06T14:50:35.559Z,1019.96
2023-10-06T14:52:20.532Z,1019.92
2023-10-06T14:54:05.530Z,1019.97
2023-10-06T14:55:50.562Z,1019.98
2023-10-06T14:57:35.500Z,1019.94
2023-10-06T14:59:20.552Z,1020.06
2023-10-06T15:01:05.571Z,1020.04
2023-10-06T15:02:50.583Z,1019.97
2023-10-06T15:04:35.762Z,1020.03
2023-10-06T15:06:20.539Z,1020.02
2023-10-06T15:08:05.582Z,1019.95
2023-10-06T15:09:50.580Z,1019.87
2023-10-06T15:11:35.892Z,1019.9
2023-10-06T15:13:20.563Z,1020
2023-10-06T15:15:05.567Z,1019.94
2023-10-06T15:16:50.573Z,1020.01
2023-10-06T15:18:35.583Z,1019.94
2023-10-06T15:20:20.667Z,1019.91
2023-10-06T15:22:05.580Z,1019.97
2023-10-06T15:23:53.802Z,1019.88
2023-10-06T15:25:35.582Z,1019.85
2023-10-06T15:27:20.567Z,1019.87
2023-10-06T15:29:05.600Z,1019.81
2023-10-06T15:30:50.590Z,1019.84
2023-10-06T15:32:35.593Z,1019.7
2023-10-06T15:34:20.611Z,1019.84
2023-10-06T15:36:05.807Z,1019.68
2023-10-06T15:37:50.887Z,1019.69
2023-10-06T15:39:35.605Z,1019.71
2023-10-06T15:41:20.636Z,1019.74
2023-10-06T15:43:19.423Z,1019.7
2023-10-06T15:44:50.599Z,1019.68
2023-10-06T15:46:35.617Z,1019.69
2023-10-06T15:48:20.633Z,1019.6
2023-10-06T15:50:20.090Z,1019.56
2023-10-06T15:51:50.698Z,1019.55
2023-10-06T15:53:35.616Z,1019.63
2023-10-06T15:55:20.638Z,1019.57
2023-10-06T15:57:05.604Z,1019.56
2023-10-06T15:58:50.640Z,1019.54
2023-10-06T16:00:35.597Z,1019.64
2023-10-06T16:02:20.619Z,1019.6
2023-10-06T16:04:05.678Z,1019.68
2023-10-06T16:05:50.611Z,1019.57
2023-10-06T16:07:37.462Z,1019.51
2023-10-06T16:09:20.676Z,1019.52
2023-10-06T16:11:05.642Z,1019.45
2023-10-06T16:12:50.644Z,1019.6
2023-10-06T16:14:35.682Z,1019.65
2023-10-06T16:16:22.642Z,1019.58
2023-10-06T16:18:05.711Z,1019.61
2023-10-06T16:19:50.638Z,1019.61
2023-10-06T16:21:35.713Z,1019.72
2023-10-06T16:23:20.795Z,1019.65
2023-10-06T16:25:05.643Z,1019.6
2023-10-06T16:26:50.945Z,1019.66
2023-10-06T16:28:35.682Z,1019.56
2023-10-06T16:30:20.668Z,1019.62
2023-10-06T16:32:05.785Z,1019.6
2023-10-06T16:33:50.677Z,1019.6
2023-10-06T16:35:35.713Z,1019.47
2023-10-06T16:37:20.673Z,1019.59
2023-10-06T16:39:05.678Z,1019.65
2023-10-06T16:40:50.688Z,1019.72
2023-10-06T16:42:35.705Z,1019.67
2023-10-06T16:44:20.699Z,1019.69
2023-10-06T16:46:05.985Z,1019.56
2023-10-06T16:47:50.735Z,1019.65
2023-10-06T16:49:35.660Z,1019.58
2023-10-06T16:51:20.676Z,1019.62
2023-10-06T16:53:05.829Z,1019.59
2023-10-06T16:54:50.812Z,1019.57
2023-10-06T16:56:35.733Z,1019.63
2023-10-06T16:58:20.705Z,1019.52
2023-10-06T17:00:05.724Z,1019.7
2023-10-06T17:01:50.741Z,1019.64
2023-10-06T17:03:35.786Z,1019.65
2023-10-06T17:05:20.746Z,1019.72
2023-10-06T17:07:05.728Z,1019.73
2023-10-06T17:08:50.729Z,1019.67
2023-10-06T17:10:35.824Z,1019.68
2023-10-06T17:12:20.741Z,1019.64
2023-10-06T17:14:05.869Z,1019.68
2023-10-06T17:15:50.822Z,1019.58
2023-10-06T17:17:35.846Z,1019.67
2023-10-06T17:19:20.745Z,1019.63
2023-10-06T17:21:05.749Z,1019.61
2023-10-06T17:22:50.754Z,1019.68
2023-10-06T17:24:35.705Z,1019.73
2023-10-06T17:26:20.901Z,1019.71
2023-10-06T17:28:05.721Z,1019.54
2023-10-06T17:29:50.736Z,1019.63
2023-10-06T17:31:35.896Z,1019.63
2023-10-06T17:33:20.737Z,1019.76
2023-10-06T17:35:05.774Z,1019.69
2023-10-06T17:36:56.733Z,1019.77
2023-10-06T17:38:35.756Z,1019.71
2023-10-06T17:40:20.769Z,1019.5
2023-10-06T17:42:05.779Z,1019.6
2023-10-06T17:43:50.750Z,1019.59
2023-10-06T17:45:35.795Z,1019.71
2023-10-06T17:49:05.807Z,1019.7
2023-10-06T17:50:50.766Z,1019.65
2023-10-06T17:52:35.784Z,1019.72
2023-10-06T17:54:20.786Z,1019.73
2023-10-06T17:56:05.733Z,1019.58
2023-10-06T17:57:50.915Z,1019.54
2023-10-06T17:59:35.793Z,1019.66
2023-10-06T18:01:20.893Z,1019.63
2023-10-06T18:03:05.867Z,1019.69
2023-10-06T18:04:50.925Z,1019.73
2023-10-06T18:06:35.761Z,1019.77
2023-10-06T18:08:20.780Z,1019.67
2023-10-06T18:10:05.800Z,1019.76
2023-10-06T18:12:08.336Z,1019.75
2023-10-06T18:13:36.196Z,1019.76
2023-10-06T18:15:20.807Z,1019.78
2023-10-06T18:17:05.861Z,1019.8
2023-10-06T18:18:50.783Z,1019.8
2023-10-06T18:20:35.801Z,1019.78
2023-10-06T18:22:21.916Z,1019.74
2023-10-06T18:24:05.817Z,1019.72
2023-10-06T18:25:50.856Z,1019.67
2023-10-06T18:27:35.822Z,1019.71
2023-10-06T18:29:20.937Z,1019.74
2023-10-06T18:31:05.857Z,1019.75
2023-10-06T18:32:50.869Z,1019.73
2023-10-06T18:34:35.842Z,1019.77
2023-10-06T18:36:20.830Z,1019.74
2023-10-06T18:38:05.814Z,1019.76
2023-10-06T18:39:50.870Z,1019.83
2023-10-06T18:41:35.855Z,1019.73
2023-10-06T18:43:20.852Z,1019.74
2023-10-06T18:45:05.951Z,1019.75
2023-10-06T18:46:50.852Z,1019.78
2023-10-06T18:48:35.876Z,1019.76
2023-10-06T18:50:20.847Z,1019.85
2023-10-06T18:52:05.852Z,1019.77
2023-10-06T18:53:50.861Z,1019.8
2023-10-06T18:55:35.918Z,1019.76
2023-10-06T18:57:20.867Z,1019.75
2023-10-06T18:59:05.854Z,1019.8
2023-10-06T19:00:51.117Z,1019.74
2023-10-06T19:02:35.994Z,1019.72
2023-10-06T19:04:20.963Z,1019.6
2023-10-06T19:06:05.901Z,1019.67
2023-10-06T19:07:50.879Z,1019.68
2023-10-06T19:09:35.861Z,1019.64
2023-10-06T19:11:20.888Z,1019.7
2023-10-06T19:13:05.880Z,1019.64
2023-10-06T19:14:50.877Z,1019.74
2023-10-06T19:16:36.090Z,1019.66
2023-10-06T19:18:20.891Z,1019.72
2023-10-06T19:20:05.909Z,1019.78
2023-10-06T19:21:50.897Z,1019.75
2023-10-06T19:23:36.170Z,1019.75
2023-10-06T19:25:20.921Z,1019.75
2023-10-06T19:27:05.918Z,1019.71
2023-10-06T19:28:51.090Z,1019.77
2023-10-06T19:30:35.920Z,1019.78
2023-10-06T19:32:21.065Z,1019.72
2023-10-06T19:34:05.897Z,1019.7
2023-10-06T19:35:50.923Z,1019.73
2023-10-06T19:37:35.941Z,1019.74
2023-10-06T19:39:20.933Z,1019.63
2023-10-06T19:41:05.941Z,1019.76
2023-10-06T19:42:50.968Z,1019.64
2023-10-06T19:44:36.307Z,1019.56
2023-10-06T19:46:21.116Z,1019.61
2023-10-06T19:48:06.111Z,1019.59
2023-10-06T19:49:50.978Z,1019.53
2023-10-06T19:51:35.946Z,1019.56
2023-10-06T19:53:20.947Z,1019.63
2023-10-06T19:55:05.947Z,1019.64
2023-10-06T19:56:50.956Z,1019.63
2023-10-06T19:58:35.962Z,1019.66
2023-10-06T20:00:20.969Z,1019.61
2023-10-06T20:02:05.973Z,1019.61
2023-10-06T20:03:51.101Z,1019.67
2023-10-06T20:05:35.999Z,1019.63
2023-10-06T20:07:20.984Z,1019.53
2023-10-06T20:09:05.964Z,1019.6
2023-10-06T20:10:51.043Z,1019.62
2023-10-06T20:12:35.961Z,1019.6
2023-10-06T20:14:20.990Z,1019.63
2023-10-06T20:16:05.998Z,1019.56
2023-10-06T20:17:50.995Z,1019.59
2023-10-06T20:19:36.060Z,1019.56
2023-10-06T20:21:20.989Z,1019.56
2023-10-06T20:23:05.983Z,1019.64
2023-10-06T20:24:51.053Z,1019.62
2023-10-06T20:26:35.987Z,1019.55
2023-10-06T20:28:21.093Z,1019.6
2023-10-06T20:30:05.992Z,1019.68
2023-10-06T20:31:51.074Z,1019.65
2023-10-06T20:33:36.004Z,1019.65
2023-10-06T20:35:21.140Z,1019.64
2023-10-06T20:37:06.038Z,1019.68
2023-10-06T20:38:51.000Z,1019.6
2023-10-06T20:40:36.044Z,1019.72
2023-10-06T20:42:21.005Z,1019.76
2023-10-06T20:44:06.024Z,1019.78
2023-10-06T20:45:51.026Z,1019.76
2023-10-06T20:47:36.102Z,1019.83
2023-10-06T20:49:21.041Z,1019.84
2023-10-06T20:51:06.200Z,1019.86
2023-10-06T20:52:51.071Z,1019.76
2023-10-06T20:54:36.103Z,1019.81
2023-10-06T20:56:21.017Z,1019.85
2023-10-06T20:58:06.058Z,1019.87
2023-10-06T20:59:51.096Z,1019.85
2023-10-06T21:01:36.146Z,1019.81
2023-10-06T21:03:21.061Z,1019.84
2023-10-06T21:05:06.090Z,1019.78
2023-10-06T21:06:51.081Z,1019.83
2023-10-06T21:08:36.085Z,1019.84
2023-10-06T21:10:21.056Z,1019.82
2023-10-06T21:12:06.108Z,1019.88
2023-10-06T21:13:51.172Z,1019.84
2023-10-06T21:15:36.126Z,1019.9
2023-10-06T21:17:21.081Z,1019.83